sensor_id;sensor_type;location;lat;lon;timestamp;pressure;altitude;pressure_sealevel;temperature;humidity
78313;BME280;67568;47.438;21.408;2024-03-22T00:43:17;100817.59;;;6.97;60.34
78313;BME280;67568;47.438;21.408;2024-03-22T00:45:43;100815.31;;;6.84;59.80
78313;BME280;67568;47.438;21.408;2024-03-22T00:48:09;100815.28;;;6.79;59.88
78313;BME280;67568;47.438;21.408;2024-03-22T00:50:34;100823.28;;;6.81;60.09
78313;BME280;67568;47.438;21.408;2024-03-22T00:53:00;100816.09;;;6.80;59.42
78313;BME280;67568;47.438;21.408;2024-03-22T00:55:26;100813.59;;;6.73;59.02
78313;BME280;67568;47.438;21.408;2024-03-22T00:57:51;100812.75;;;6.72;59.13
78313;BME280;67568;47.438;21.408;2024-03-22T01:00:17;100819.59;;;6.65;60.01
78313;BME280;67568;47.438;21.408;2024-03-22T01:02:46;100822.88;;;6.62;60.46
78313;BME280;67568;47.438;21.408;2024-03-22T01:05:12;100816.81;;;6.65;60.17
78313;BME280;67568;47.438;21.408;2024-03-22T01:07:38;100813.84;;;6.71;58.51
78313;BME280;67568;47.438;21.408;2024-03-22T01:10:04;100819.88;;;6.63;59.89
78313;BME280;67568;47.438;21.408;2024-03-22T01:12:30;100812.69;;;6.62;59.66
78313;BME280;67568;47.438;21.408;2024-03-22T01:14:56;100811.06;;;6.66;58.55
78313;BME280;67568;47.438;21.408;2024-03-22T01:17:22;100817.06;;;6.58;59.87
78313;BME280;67568;47.438;21.408;2024-03-22T01:19:48;100816.25;;;6.58;60.28
78313;BME280;67568;47.438;21.408;2024-03-22T01:22:14;100819.25;;;6.56;60.79
78313;BME280;67568;47.438;21.408;2024-03-22T01:24:42;100813.41;;;6.47;60.50
78313;BME280;67568;47.438;21.408;2024-03-22T01:27:08;100815.91;;;6.49;59.72
78313;BME280;67568;47.438;21.408;2024-03-22T01:29:33;100816.09;;;6.42;60.41
78313;BME280;67568;47.438;21.408;2024-03-22T01:31:59;100815.50;;;6.35;59.73
78313;BME280;67568;47.438;21.408;2024-03-22T01:34:25;100815.81;;;6.39;59.70
78313;BME280;67568;47.438;21.408;2024-03-22T01:36:53;100815.75;;;6.34;59.49
78313;BME280;67568;47.438;21.408;2024-03-22T01:39:20;100808.59;;;6.33;60.35
78313;BME280;67568;47.438;21.408;2024-03-22T01:41:50;100813.28;;;6.32;59.66
78313;BME280;67568;47.438;21.408;2024-03-22T01:44:16;100806.00;;;6.16;61.08
78313;BME280;67568;47.438;21.408;2024-03-22T01:46:42;100813.41;;;6.15;62.34
78313;BME280;67568;47.438;21.408;2024-03-22T01:49:09;100813.00;;;6.01;61.68
78313;BME280;67568;47.438;21.408;2024-03-22T01:51:36;100806.88;;;5.94;60.68
78313;BME280;67568;47.438;21.408;2024-03-22T01:54:03;100813.00;;;6.01;60.01
78313;BME280;67568;47.438;21.408;2024-03-22T01:56:30;100810.03;;;6.08;59.73
78313;BME280;67568;47.438;21.408;2024-03-22T01:58:56;100802.41;;;6.15;60.20
78313;BME280;67568;47.438;21.408;2024-03-22T02:01:25;100806.16;;;6.04;60.21
78313;BME280;67568;47.438;21.408;2024-03-22T02:03:50;100805.53;;;5.97;60.52
78313;BME280;67568;47.438;21.408;2024-03-22T02:06:16;100806.72;;;6.06;59.69
78313;BME280;67568;47.438;21.408;2024-03-22T02:08:42;100805.97;;;5.89;59.78
78313;BME280;67568;47.438;21.408;2024-03-22T02:11:08;100806.75;;;5.84;60.25
78313;BME280;67568;47.438;21.408;2024-03-22T02:13:34;100807.13;;;5.93;60.68
78313;BME280;67568;47.438;21.408;2024-03-22T02:16:04;100799.50;;;6.00;60.60
78313;BME280;67568;47.438;21.408;2024-03-22T02:18:29;100813.41;;;6.15;59.41
78313;BME280;67568;47.438;21.408;2024-03-22T02:20:57;100804.69;;;6.23;59.07
78313;BME280;67568;47.438;21.408;2024-03-22T02:23:36;100811.84;;;6.24;59.79
78313;BME280;67568;47.438;21.408;2024-03-22T02:26:03;100802.53;;;6.30;59.90
78313;BME280;67568;47.438;21.408;2024-03-22T02:28:30;100804.16;;;6.26;59.53
78313;BME280;67568;47.438;21.408;2024-03-22T02:30:56;100806.94;;;6.31;59.98
78313;BME280;67568;47.438;21.408;2024-03-22T02:33:25;100802.06;;;6.39;59.81
78313;BME280;67568;47.438;21.408;2024-03-22T02:35:51;100802.34;;;6.42;57.65
78313;BME280;67568;47.438;21.408;2024-03-22T02:38:17;100797.66;;;6.43;58.51
78313;BME280;67568;47.438;21.408;2024-03-22T02:40:43;100803.44;;;6.41;58.27
78313;BME280;67568;47.438;21.408;2024-03-22T02:43:10;100801.81;;;6.45;58.00
78313;BME280;67568;47.438;21.408;2024-03-22T02:45:35;100796.63;;;6.49;58.26
78313;BME280;67568;47.438;21.408;2024-03-22T02:48:01;100793.31;;;6.47;58.93
78313;BME280;67568;47.438;21.408;2024-03-22T02:50:34;100795.78;;;6.48;57.93
78313;BME280;67568;47.438;21.408;2024-03-22T02:53:00;100793.91;;;6.54;58.97
78313;BME280;67568;47.438;21.408;2024-03-22T02:55:26;100788.97;;;6.56;57.68
78313;BME280;67568;47.438;21.408;2024-03-22T02:57:52;100793.06;;;6.53;59.10
78313;BME280;67568;47.438;21.408;2024-03-22T03:00:17;100799.16;;;6.56;58.08
78313;BME280;67568;47.438;21.408;2024-03-22T03:02:45;100798.28;;;6.50;57.44
78313;BME280;67568;47.438;21.408;2024-03-22T03:05:11;100801.59;;;6.52;57.99
78313;BME280;67568;47.438;21.408;2024-03-22T03:07:37;100796.09;;;6.52;58.52
78313;BME280;67568;47.438;21.408;2024-03-22T03:10:02;100796.63;;;6.49;58.15
78313;BME280;67568;47.438;21.408;2024-03-22T03:12:28;100796.59;;;6.44;57.97
78313;BME280;67568;47.438;21.408;2024-03-22T03:14:54;100798.72;;;6.37;57.22
78313;BME280;67568;47.438;21.408;2024-03-22T03:17:19;100804.47;;;6.30;57.83
78313;BME280;67568;47.438;21.408;2024-03-22T03:19:45;100803.09;;;6.33;57.17
78313;BME280;67568;47.438;21.408;2024-03-22T03:22:10;100803.94;;;6.33;57.73
78313;BME280;67568;47.438;21.408;2024-03-22T03:24:36;100810.19;;;6.23;57.41
78313;BME280;67568;47.438;21.408;2024-03-22T03:27:02;100812.97;;;6.28;58.35
78313;BME280;67568;47.438;21.408;2024-03-22T03:29:27;100822.09;;;6.34;58.91
78313;BME280;67568;47.438;21.408;2024-03-22T03:31:53;100814.59;;;6.24;58.85
78313;BME280;67568;47.438;21.408;2024-03-22T03:34:19;100819.31;;;6.29;58.44
78313;BME280;67568;47.438;21.408;2024-03-22T03:36:44;100822.97;;;6.40;57.78
78313;BME280;67568;47.438;21.408;2024-03-22T03:39:13;100819.69;;;6.43;57.76
78313;BME280;67568;47.438;21.408;2024-03-22T03:41:39;100819.78;;;6.53;57.99
78313;BME280;67568;47.438;21.408;2024-03-22T03:44:04;100813.34;;;6.42;57.95
78313;BME280;67568;47.438;21.408;2024-03-22T03:46:30;100811.75;;;6.46;59.11
78313;BME280;67568;47.438;21.408;2024-03-22T03:48:58;100804.84;;;6.44;58.01
78313;BME280;67568;47.438;21.408;2024-03-22T03:51:24;100810.34;;;6.44;58.67
78313;BME280;67568;47.438;21.408;2024-03-22T03:53:49;100815.31;;;6.47;57.95
78313;BME280;67568;47.438;21.408;2024-03-22T03:56:15;100815.91;;;6.49;58.25
78313;BME280;67568;47.438;21.408;2024-03-22T03:58:41;100815.31;;;6.47;57.66
78313;BME280;67568;47.438;21.408;2024-03-22T04:01:08;100810.91;;;6.46;59.05
78313;BME280;67568;47.438;21.408;2024-03-22T04:03:34;100819.69;;;6.43;58.51
78313;BME280;67568;47.438;21.408;2024-03-22T04:06:01;100816.69;;;6.44;57.48
78313;BME280;67568;47.438;21.408;2024-03-22T04:08:27;100807.59;;;6.44;57.77
78313;BME280;67568;47.438;21.408;2024-03-22T04:10:56;100810.78;;;6.30;59.09
78313;BME280;67568;47.438;21.408;2024-03-22T04:13:21;100811.59;;;6.31;58.68
78313;BME280;67568;47.438;21.408;2024-03-22T04:15:47;100819.97;;;6.41;56.93
78313;BME280;67568;47.438;21.408;2024-03-22T04:18:13;100816.91;;;6.38;57.60
78313;BME280;67568;47.438;21.408;2024-03-22T04:20:41;100818.66;;;6.49;57.52
78313;BME280;67568;47.438;21.408;2024-03-22T04:23:07;100809.53;;;6.48;56.72
78313;BME280;67568;47.438;21.408;2024-03-22T04:25:33;100808.16;;;6.46;57.72
78313;BME280;67568;47.438;21.408;2024-03-22T04:27:59;100813.00;;;6.34;57.85
78313;BME280;67568;47.438;21.408;2024-03-22T04:30:25;100810.13;;;6.50;57.74
78313;BME280;67568;47.438;21.408;2024-03-22T04:32:50;100815.31;;;6.47;58.59
78313;BME280;67568;47.438;21.408;2024-03-22T04:35:16;100809.81;;;6.47;58.10
78313;BME280;67568;47.438;21.408;2024-03-22T04:37:41;100812.00;;;6.45;57.48
78313;BME280;67568;47.438;21.408;2024-03-22T04:40:07;100820.91;;;6.57;57.03
78313;BME280;67568;47.438;21.408;2024-03-22T04:42:36;100815.91;;;6.49;57.89
78313;BME280;67568;47.438;21.408;2024-03-22T04:45:02;100822.03;;;6.61;57.63
78313;BME280;67568;47.438;21.408;2024-03-22T04:47:28;100816.53;;;6.61;58.41
78313;BME280;67568;47.438;21.408;2024-03-22T04:49:54;100815.47;;;6.67;58.19
78313;BME280;67568;47.438;21.408;2024-03-22T04:52:19;100818.19;;;6.62;58.74
78313;BME280;67568;47.438;21.408;2024-03-22T04:54:45;100826.19;;;6.64;58.06
78313;BME280;67568;47.438;21.408;2024-03-22T04:57:11;100823.31;;;6.48;58.69
78313;BME280;67568;47.438;21.408;2024-03-22T04:59:36;100823.31;;;6.48;58.94
78313;BME280;67568;47.438;21.408;2024-03-22T05:02:02;100828.00;;;6.48;58.29
78313;BME280;67568;47.438;21.408;2024-03-22T05:04:28;100814.03;;;6.55;58.58
78313;BME280;67568;47.438;21.408;2024-03-22T05:06:53;100822.56;;;6.58;57.58
78313;BME280;67568;47.438;21.408;2024-03-22T05:09:19;100828.50;;;6.45;59.04
78313;BME280;67568;47.438;21.408;2024-03-22T05:11:48;100825.28;;;6.53;58.85
78313;BME280;67568;47.438;21.408;2024-03-22T05:14:13;100820.91;;;6.57;58.37
78313;BME280;67568;47.438;21.408;2024-03-22T05:16:42;100827.50;;;6.56;59.85
78313;BME280;67568;47.438;21.408;2024-03-22T05:19:08;100819.53;;;6.60;58.93
78313;BME280;67568;47.438;21.408;2024-03-22T05:21:36;100835.16;;;6.49;59.06
78313;BME280;67568;47.438;21.408;2024-03-22T05:24:02;100825.75;;;6.45;59.62
78313;BME280;67568;47.438;21.408;2024-03-22T05:26:28;100827.47;;;6.51;59.93
78313;BME280;67568;47.438;21.408;2024-03-22T05:28:53;100828.59;;;6.55;59.89
78313;BME280;67568;47.438;21.408;2024-03-22T05:31:27;100821.66;;;6.47;60.47
78313;BME280;67568;47.438;21.408;2024-03-22T05:33:56;100833.50;;;6.48;60.48
78313;BME280;67568;47.438;21.408;2024-03-22T05:36:21;100835.72;;;6.51;60.05
78313;BME280;67568;47.438;21.408;2024-03-22T05:38:47;100836.19;;;6.38;61.30
78313;BME280;67568;47.438;21.408;2024-03-22T05:41:13;100836.69;;;6.35;61.65
78313;BME280;67568;47.438;21.408;2024-03-22T05:43:38;100839.28;;;6.51;60.65
78313;BME280;67568;47.438;21.408;2024-03-22T05:46:04;100848.75;;;6.61;61.09
78313;BME280;67568;47.438;21.408;2024-03-22T05:48:30;100845.84;;;6.78;60.94
78313;BME280;67568;47.438;21.408;2024-03-22T05:50:55;100850.66;;;6.97;61.16
78313;BME280;67568;47.438;21.408;2024-03-22T05:53:24;100843.56;;;7.07;59.74
78313;BME280;67568;47.438;21.408;2024-03-22T05:55:49;100855.78;;;7.26;59.89
78313;BME280;67568;47.438;21.408;2024-03-22T05:58:15;100853.84;;;7.27;60.01
78313;BME280;67568;47.438;21.408;2024-03-22T06:00:41;100844.50;;;7.33;61.40
78313;BME280;67568;47.438;21.408;2024-03-22T06:03:10;100847.88;;;7.45;60.96
78313;BME280;67568;47.438;21.408;2024-03-22T06:05:35;100857.78;;;7.41;61.99
78313;BME280;67568;47.438;21.408;2024-03-22T06:08:02;100845.72;;;7.57;60.34
78313;BME280;67568;47.438;21.408;2024-03-22T06:10:27;100854.31;;;7.66;61.06
78313;BME280;67568;47.438;21.408;2024-03-22T06:12:53;100854.03;;;7.68;61.52
78313;BME280;67568;47.438;21.408;2024-03-22T06:15:22;100851.84;;;7.75;60.68
78313;BME280;67568;47.438;21.408;2024-03-22T06:17:48;100850.78;;;7.86;60.14
78313;BME280;67568;47.438;21.408;2024-03-22T06:20:16;100856.03;;;7.93;59.97
78313;BME280;67568;47.438;21.408;2024-03-22T06:22:42;100861.34;;;8.15;58.77
78313;BME280;67568;47.438;21.408;2024-03-22T06:25:10;100861.34;;;8.35;59.29
78313;BME280;67568;47.438;21.408;2024-03-22T06:27:36;100856.97;;;8.44;58.88
78313;BME280;67568;47.438;21.408;2024-03-22T11:18:08;100794.47;;;17.05;37.30
78313;BME280;67568;47.438;21.408;2024-03-22T11:20:37;100798.56;;;17.16;37.10
78313;BME280;67568;47.438;21.408;2024-03-22T11:23:06;100800.09;;;16.96;35.32
78313;BME280;67568;47.438;21.408;2024-03-22T11:25:32;100794.47;;;17.05;36.04
78313;BME280;67568;47.438;21.408;2024-03-22T11:27:59;100789.56;;;16.76;35.68
78313;BME280;67568;47.438;21.408;2024-03-22T11:30:25;100796.31;;;16.92;36.61
78313;BME280;67568;47.438;21.408;2024-03-22T11:32:50;100782.88;;;16.68;36.68
78313;BME280;67568;47.438;21.408;2024-03-22T11:35:16;100791.59;;;16.58;36.00
78313;BME280;67568;47.438;21.408;2024-03-22T11:37:42;100777.47;;;16.54;35.62
78313;BME280;67568;47.438;21.408;2024-03-22T11:40:14;100783.25;;;16.23;35.66
78313;BME280;67568;47.438;21.408;2024-03-22T11:42:41;100776.84;;;16.23;36.13
78313;BME280;67568;47.438;21.408;2024-03-22T11:45:12;100772.53;;;16.16;36.30
78313;BME280;67568;47.438;21.408;2024-03-22T11:47:39;100770.75;;;16.03;37.07
78313;BME280;67568;47.438;21.408;2024-03-22T11:50:15;100771.91;;;16.11;36.90
78313;BME280;67568;47.438;21.408;2024-03-22T11:52:41;100776.00;;;16.22;37.51
78313;BME280;67568;47.438;21.408;2024-03-22T11:55:07;100772.09;;;15.97;36.95
78313;BME280;67568;47.438;21.408;2024-03-22T11:57:33;100772.53;;;15.82;36.70
78313;BME280;67568;47.438;21.408;2024-03-22T12:00:00;100762.03;;;15.79;37.00
78313;BME280;67568;47.438;21.408;2024-03-22T12:02:26;100758.56;;;15.90;36.78
78313;BME280;67568;47.438;21.408;2024-03-22T12:04:52;100765.34;;;15.98;36.58
78313;BME280;67568;47.438;21.408;2024-03-22T12:07:18;100767.31;;;15.98;37.04
78313;BME280;67568;47.438;21.408;2024-03-22T12:09:45;100757.91;;;15.85;36.06
78313;BME280;67568;47.438;21.408;2024-03-22T12:12:12;100761.06;;;15.74;37.20
78313;BME280;67568;47.438;21.408;2024-03-22T12:14:41;100752.81;;;15.69;37.14
78313;BME280;67568;47.438;21.408;2024-03-22T12:17:07;100764.94;;;15.65;37.83
78313;BME280;67568;47.438;21.408;2024-03-22T12:19:33;100751.75;;;15.48;37.33
78313;BME280;67568;47.438;21.408;2024-03-22T12:22:00;100745.34;;;15.47;38.52
78313;BME280;67568;47.438;21.408;2024-03-22T12:24:26;100744.53;;;15.47;37.74
78313;BME280;67568;47.438;21.408;2024-03-22T12:26:53;100740.94;;;15.55;38.07
78313;BME280;67568;47.438;21.408;2024-03-22T12:29:22;100736.84;;;15.61;38.11
78313;BME280;67568;47.438;21.408;2024-03-22T12:31:50;100730.47;;;15.69;37.65
78313;BME280;67568;47.438;21.408;2024-03-22T12:34:16;100743.13;;;15.93;37.51
78313;BME280;67568;47.438;21.408;2024-03-22T12:36:42;100736.41;;;16.03;37.37
78313;BME280;67568;47.438;21.408;2024-03-22T12:39:08;100739.97;;;16.38;36.88
78313;BME280;67568;47.438;21.408;2024-03-22T12:41:34;100728.69;;;16.73;36.72
78313;BME280;67568;47.438;21.408;2024-03-22T12:44:00;100727.78;;;16.51;34.60
78313;BME280;67568;47.438;21.408;2024-03-22T12:46:27;100724.53;;;16.88;36.92
78313;BME280;67568;47.438;21.408;2024-03-22T12:48:53;100715.72;;;16.77;35.93
78313;BME280;67568;47.438;21.408;2024-03-22T12:51:19;100719.22;;;17.03;35.54
78313;BME280;67568;47.438;21.408;2024-03-22T12:53:45;100710.56;;;16.79;35.72
78313;BME280;67568;47.438;21.408;2024-03-22T12:56:11;100699.13;;;17.01;35.53
78313;BME280;67568;47.438;21.408;2024-03-22T12:58:37;100698.00;;;17.23;35.49
78313;BME280;67568;47.438;21.408;2024-03-22T13:01:04;100688.84;;;17.14;35.01
78313;BME280;67568;47.438;21.408;2024-03-22T13:03:30;100685.25;;;17.14;35.39
78313;BME280;67568;47.438;21.408;2024-03-22T13:05:56;100695.81;;;17.08;35.40
78313;BME280;67568;47.438;21.408;2024-03-22T13:08:21;100690.78;;;17.22;36.10
78313;BME280;67568;47.438;21.408;2024-03-22T13:10:47;100679.00;;;17.08;36.68
78313;BME280;67568;47.438;21.408;2024-03-22T13:13:13;100674.72;;;17.11;36.69
78313;BME280;67568;47.438;21.408;2024-03-22T13:15:44;100686.72;;;16.73;36.20
78313;BME280;67568;47.438;21.408;2024-03-22T13:18:10;100675.19;;;16.83;36.34
78313;BME280;67568;47.438;21.408;2024-03-22T13:20:39;100679.97;;;16.82;37.46
78313;BME280;67568;47.438;21.408;2024-03-22T13:23:05;100674.13;;;16.96;36.84
78313;BME280;67568;47.438;21.408;2024-03-22T13:25:31;100667.91;;;16.91;36.89
78313;BME280;67568;47.438;21.408;2024-03-22T13:27:57;100670.41;;;16.83;36.82
78313;BME280;67568;47.438;21.408;2024-03-22T13:30:23;100663.19;;;16.82;37.26
78313;BME280;67568;47.438;21.408;2024-03-22T13:32:51;100662.19;;;16.78;36.82
78313;BME280;67568;47.438;21.408;2024-03-22T13:35:17;100655.59;;;16.74;37.42
78313;BME280;67568;47.438;21.408;2024-03-22T13:37:42;100657.59;;;16.74;36.54
78313;BME280;67568;47.438;21.408;2024-03-22T13:40:08;100652.16;;;16.77;37.25
78313;BME280;67568;47.438;21.408;2024-03-22T13:42:34;100653.69;;;16.96;37.19
78313;BME280;67568;47.438;21.408;2024-03-22T13:45:00;100641.41;;;16.88;36.98
78313;BME280;67568;47.438;21.408;2024-03-22T13:47:26;100642.47;;;16.66;37.13
78313;BME280;67568;47.438;21.408;2024-03-22T13:49:52;100639.81;;;16.70;36.83
78313;BME280;67568;47.438;21.408;2024-03-22T13:52:18;100633.09;;;16.71;38.57
78313;BME280;67568;47.438;21.408;2024-03-22T13:54:43;100628.34;;;16.62;37.58
78313;BME280;67568;47.438;21.408;2024-03-22T13:57:09;100624.13;;;16.39;38.10
78313;BME280;67568;47.438;21.408;2024-03-22T13:59:35;100626.78;;;16.35;38.12
78313;BME280;67568;47.438;21.408;2024-03-22T14:02:00;100618.09;;;16.67;37.97
78313;BME280;67568;47.438;21.408;2024-03-22T14:04:26;100618.78;;;16.63;38.16
78313;BME280;67568;47.438;21.408;2024-03-22T14:06:52;100608.25;;;16.60;39.04
78313;BME280;67568;47.438;21.408;2024-03-22T14:09:21;100603.53;;;16.52;38.38
78313;BME280;67568;47.438;21.408;2024-03-22T14:11:46;100603.03;;;16.50;38.75
78313;BME280;67568;47.438;21.408;2024-03-22T14:14:12;100600.66;;;16.31;38.57
78313;BME280;67568;47.438;21.408;2024-03-22T14:16:39;100595.22;;;16.35;39.27
78313;BME280;67568;47.438;21.408;2024-03-22T14:19:04;100600.50;;;16.28;38.77
78313;BME280;67568;47.438;21.408;2024-03-22T14:21:30;100593.59;;;16.34;39.15
78313;BME280;67568;47.438;21.408;2024-03-22T14:23:56;100596.25;;;16.22;38.46
78313;BME280;67568;47.438;21.408;2024-03-22T14:26:22;100585.59;;;16.15;38.94
78313;BME280;67568;47.438;21.408;2024-03-22T14:28:48;100593.13;;;16.23;38.73
78313;BME280;67568;47.438;21.408;2024-03-22T14:31:14;100583.22;;;16.34;38.48
78313;BME280;67568;47.438;21.408;2024-03-22T14:33:40;100589.97;;;16.25;38.89
78313;BME280;67568;47.438;21.408;2024-03-22T14:36:06;100583.56;;;16.24;38.57
78313;BME280;67568;47.438;21.408;2024-03-22T14:38:33;100580.59;;;16.29;38.57
78313;BME280;67568;47.438;21.408;2024-03-22T14:41:01;100582.47;;;16.08;39.83
78313;BME280;67568;47.438;21.408;2024-03-22T14:43:27;100582.56;;;15.73;40.22
78313;BME280;67568;47.438;21.408;2024-03-22T14:45:54;100584.00;;;15.88;38.29
78313;BME280;67568;47.438;21.408;2024-03-22T14:48:20;100572.34;;;15.86;39.35
78313;BME280;67568;47.438;21.408;2024-03-22T14:50:46;100572.88;;;15.70;40.03
78313;BME280;67568;47.438;21.408;2024-03-22T14:53:15;100569.41;;;15.73;39.16
78313;BME280;67568;47.438;21.408;2024-03-22T14:55:41;100570.06;;;15.70;40.69
78313;BME280;67568;47.438;21.408;2024-03-22T14:58:06;100570.06;;;15.70;39.80
78313;BME280;67568;47.438;21.408;2024-03-22T15:00:32;100570.06;;;15.70;39.24
78313;BME280;67568;47.438;21.408;2024-03-22T15:02:59;100564.31;;;15.67;39.28
78313;BME280;67568;47.438;21.408;2024-03-22T15:05:24;100564.47;;;15.70;39.65
78313;BME280;67568;47.438;21.408;2024-03-22T15:07:50;100558.44;;;15.68;40.32
78313;BME280;67568;47.438;21.408;2024-03-22T15:10:16;100563.34;;;15.71;38.84
78313;BME280;67568;47.438;21.408;2024-03-22T15:12:41;100554.97;;;15.71;39.81
78313;BME280;67568;47.438;21.408;2024-03-22T15:15:07;100557.91;;;15.66;40.25
78313;BME280;67568;47.438;21.408;2024-03-22T15:17:33;100559.53;;;15.67;40.09
78313;BME280;67568;47.438;21.408;2024-03-22T15:19:59;100557.91;;;15.66;40.57
78313;BME280;67568;47.438;21.408;2024-03-22T15:22:24;100567.94;;;15.33;41.31
78313;BME280;67568;47.438;21.408;2024-03-22T15:24:50;100563.53;;;15.40;41.14
78313;BME280;67568;47.438;21.408;2024-03-22T15:27:15;100562.22;;;15.38;39.92
78313;BME280;67568;47.438;21.408;2024-03-22T15:29:41;100564.50;;;15.36;41.14
78313;BME280;67568;47.438;21.408;2024-03-22T15:32:07;100562.38;;;15.33;39.90
78313;BME280;67568;47.438;21.408;2024-03-22T15:34:33;100559.41;;;15.29;40.29
78313;BME280;67568;47.438;21.408;2024-03-22T15:36:59;100556.13;;;15.10;41.75
78313;BME280;67568;47.438;21.408;2024-03-22T15:39:24;100554.81;;;15.07;40.98
78313;BME280;67568;47.438;21.408;2024-03-22T15:41:51;100558.41;;;15.07;41.25
78313;BME280;67568;47.438;21.408;2024-03-22T15:44:17;100554.81;;;14.98;39.89
78313;BME280;67568;47.438;21.408;2024-03-22T15:46:42;100557.25;;;14.91;41.62
78313;BME280;67568;47.438;21.408;2024-03-22T15:49:08;100546.28;;;14.95;40.56
78313;BME280;67568;47.438;21.408;2024-03-22T15:51:34;100549.03;;;14.77;41.76
78313;BME280;67568;47.438;21.408;2024-03-22T15:53:59;100545.41;;;14.85;41.42
78313;BME280;67568;47.438;21.408;2024-03-22T15:56:25;100549.19;;;14.72;40.97
78313;BME280;67568;47.438;21.408;2024-03-22T15:58:51;100553.09;;;14.71;41.23
78313;BME280;67568;47.438;21.408;2024-03-22T16:01:16;100550.00;;;14.64;42.95
78313;BME280;67568;47.438;21.408;2024-03-22T16:03:42;100546.69;;;14.62;41.66
78313;BME280;67568;47.438;21.408;2024-03-22T16:06:08;100548.16;;;14.59;42.89
78313;BME280;67568;47.438;21.408;2024-03-22T16:08:33;100547.69;;;14.57;43.63
78313;BME280;67568;47.438;21.408;2024-03-22T16:10:59;100549.91;;;14.47;42.34
78313;BME280;67568;47.438;21.408;2024-03-22T16:13:25;100557.91;;;14.39;42.66
78313;BME280;67568;47.438;21.408;2024-03-22T16:15:50;100553.63;;;14.33;43.37
78313;BME280;67568;47.438;21.408;2024-03-22T16:18:16;100552.97;;;14.28;43.98
78313;BME280;67568;47.438;21.408;2024-03-22T16:20:42;100554.63;;;14.29;43.57
78313;BME280;67568;47.438;21.408;2024-03-22T16:23:07;100551.78;;;14.20;43.33
78313;BME280;67568;47.438;21.408;2024-03-22T16:25:37;100554.09;;;14.18;43.83
78313;BME280;67568;47.438;21.408;2024-03-22T16:28:03;100555.00;;;14.05;44.15
78313;BME280;67568;47.438;21.408;2024-03-22T16:30:29;100552.84;;;14.02;45.41
78313;BME280;67568;47.438;21.408;2024-03-22T16:32:55;100564.63;;;13.99;44.39
78313;BME280;67568;47.438;21.408;2024-03-22T16:35:21;100556.94;;;13.95;44.76
78313;BME280;67568;47.438;21.408;2024-03-22T16:37:47;100557.41;;;13.89;46.26
78313;BME280;67568;47.438;21.408;2024-03-22T16:40:12;100545.59;;;13.92;44.28
78313;BME280;67568;47.438;21.408;2024-03-22T16:42:49;100549.66;;;13.86;44.43
78313;BME280;67568;47.438;21.408;2024-03-22T16:45:15;100551.13;;;13.83;46.27
78313;BME280;67568;47.438;21.408;2024-03-22T16:47:41;100545.94;;;13.68;45.63
78313;BME280;67568;47.438;21.408;2024-03-22T16:50:08;100552.28;;;13.60;46.25
78313;BME280;67568;47.438;21.408;2024-03-22T16:52:34;100546.84;;;13.55;46.84
78313;BME280;67568;47.438;21.408;2024-03-22T16:55:00;100547.63;;;13.46;46.01
78313;BME280;67568;47.438;21.408;2024-03-22T16:57:26;100552.97;;;13.43;46.43
78313;BME280;67568;47.438;21.408;2024-03-22T16:59:52;100537.38;;;13.33;47.80
78313;BME280;67568;47.438;21.408;2024-03-22T17:02:18;100546.97;;;13.27;47.92
78313;BME280;67568;47.438;21.408;2024-03-22T17:04:43;100553.16;;;13.24;47.78
78313;BME280;67568;47.438;21.408;2024-03-22T17:07:09;100547.19;;;13.17;46.90
78313;BME280;67568;47.438;21.408;2024-03-22T17:09:35;100540.72;;;13.08;47.16
78313;BME280;67568;47.438;21.408;2024-03-22T17:12:00;100539.41;;;13.05;47.86
78313;BME280;67568;47.438;21.408;2024-03-22T17:14:26;100541.66;;;13.03;47.58
78313;BME280;67568;47.438;21.408;2024-03-22T17:16:52;100545.59;;;13.02;48.24
78313;BME280;67568;47.438;21.408;2024-03-22T17:19:18;100539.50;;;13.00;47.98
78313;BME280;67568;47.438;21.408;2024-03-22T17:21:43;100543.66;;;12.89;48.33
78313;BME280;67568;47.438;21.408;2024-03-22T17:24:09;100544.72;;;12.79;48.56
78313;BME280;67568;47.438;21.408;2024-03-22T17:26:35;100538.25;;;12.83;48.82
78313;BME280;67568;47.438;21.408;2024-03-22T17:29:01;100537.84;;;12.76;48.70
78313;BME280;67568;47.438;21.408;2024-03-22T17:31:26;100542.06;;;12.74;48.57
78313;BME280;67568;47.438;21.408;2024-03-22T17:33:52;100542.97;;;12.69;48.62
78313;BME280;67568;47.438;21.408;2024-03-22T17:36:17;100537.66;;;12.59;49.23
78313;BME280;67568;47.438;21.408;2024-03-22T17:38:43;100540.25;;;12.55;49.88
78313;BME280;67568;47.438;21.408;2024-03-22T17:41:09;100541.69;;;12.53;49.31
78313;BME280;67568;47.438;21.408;2024-03-22T17:43:34;100540.34;;;12.36;50.21
78313;BME280;67568;47.438;21.408;2024-03-22T17:46:00;100536.44;;;12.37;50.53
78313;BME280;67568;47.438;21.408;2024-03-22T17:48:26;100531.31;;;12.31;49.85
78313;BME280;67568;47.438;21.408;2024-03-22T17:50:52;100530.28;;;12.27;50.70
78313;BME280;67568;47.438;21.408;2024-03-22T17:53:18;100531.91;;;12.14;50.52
78313;BME280;67568;47.438;21.408;2024-03-22T17:55:44;100529.47;;;12.12;51.16
78313;BME280;67568;47.438;21.408;2024-03-22T17:58:10;100523.47;;;12.05;51.12
78313;BME280;67568;47.438;21.408;2024-03-22T18:00:36;100524.19;;;11.97;50.60
78313;BME280;67568;47.438;21.408;2024-03-22T18:03:01;100526.78;;;11.93;51.22
78313;BME280;67568;47.438;21.408;2024-03-22T18:05:27;100530.38;;;11.94;51.75
78313;BME280;67568;47.438;21.408;2024-03-22T18:07:53;100521.84;;;11.90;51.38
78313;BME280;67568;47.438;21.408;2024-03-22T18:10:18;100523.03;;;11.84;52.08